createdAt,value
2018-09-28T00:01:34.248Z,15.23
2018-09-28T00:04:01.684Z,12.83
2018-09-28T00:06:29.104Z,14.63
2018-09-28T00:08:56.534Z,14.77
2018-09-28T00:11:23.952Z,16.60
2018-09-28T00:13:51.392Z,13.83
2018-09-28T00:16:18.839Z,15.73
2018-09-28T00:18:46.242Z,12.37
2018-09-28T00:21:13.697Z,13.90
2018-09-28T00:23:41.109Z,16.40
2018-09-28T00:26:08.593Z,18.80
2018-09-28T00:28:35.952Z,17.23
2018-09-28T00:31:03.369Z,18.53
2018-09-28T00:33:30.802Z,15.10
2018-09-28T00:35:58.299Z,15.43
2018-09-28T00:38:25.676Z,16.43
2018-09-28T00:40:53.089Z,14.13
2018-09-28T00:43:20.509Z,17.27
2018-09-28T00:45:47.916Z,16.50
2018-09-28T00:48:15.343Z,13.40
2018-09-28T00:50:42.743Z,14.53
2018-09-28T00:53:10.174Z,20.57
2018-09-28T00:55:37.617Z,14.90
2018-09-28T00:58:05.057Z,14.50
2018-09-28T01:00:32.454Z,19.83
2018-09-28T01:02:59.901Z,19.43
2018-09-28T01:05:27.309Z,14.77
2018-09-28T01:07:54.724Z,17.80
2018-09-28T01:10:22.153Z,14.70
2018-09-28T01:12:49.554Z,15.07
2018-09-28T01:15:16.969Z,18.33
2018-09-28T01:17:44.386Z,16.97
2018-09-28T01:20:11.826Z,15.60
2018-09-28T01:22:39.235Z,16.20
2018-09-28T01:25:06.655Z,18.00
2018-09-28T01:27:35.311Z,16.93
2018-09-28T01:30:02.801Z,16.80
2018-09-28T01:32:30.170Z,16.10
2018-09-28T01:34:57.604Z,15.63
2018-09-28T01:37:25.020Z,19.93
2018-09-28T01:39:52.466Z,20.13
2018-09-28T01:42:19.877Z,16.40
2018-09-28T01:44:47.274Z,14.70
2018-09-28T01:47:14.698Z,16.40
2018-09-28T01:49:42.129Z,16.23
2018-09-28T01:52:09.545Z,16.97
2018-09-28T01:54:36.968Z,21.63
2018-09-28T01:57:04.368Z,22.47
2018-09-28T01:59:31.884Z,17.50
2018-09-28T02:01:59.310Z,16.67
2018-09-28T02:04:26.772Z,20.60
2018-09-28T02:06:54.161Z,17.63
2018-09-28T02:09:21.585Z,17.00
2018-09-28T02:11:48.995Z,19.63
2018-09-28T02:14:16.433Z,15.10
2018-09-28T02:16:43.821Z,19.47
2018-09-28T02:19:11.236Z,21.77
2018-09-28T02:21:38.670Z,21.83
2018-09-28T02:24:06.203Z,19.30
2018-09-28T02:26:33.617Z,20.87
2018-09-28T02:29:01.031Z,15.87
2018-09-28T02:31:28.461Z,17.57
2018-09-28T02:33:55.869Z,18.27
2018-09-28T02:36:23.303Z,20.70
2018-09-28T02:38:50.717Z,19.20
2018-09-28T02:41:18.183Z,21.67
2018-09-28T02:43:45.618Z,20.70
2018-09-28T02:46:13.040Z,18.53
2018-09-28T02:48:40.473Z,20.20
2018-09-28T02:51:07.895Z,18.53
2018-09-28T02:53:35.340Z,20.80
2018-09-28T02:56:02.747Z,19.67
2018-09-28T02:58:30.202Z,21.73
2018-09-28T03:00:57.617Z,21.87
2018-09-28T03:03:25.009Z,21.87
2018-09-28T03:05:52.414Z,17.17
2018-09-28T03:08:19.840Z,19.47
2018-09-28T03:10:47.242Z,18.43
2018-09-28T03:13:14.666Z,19.03
2018-09-28T03:15:42.074Z,20.87
2018-09-28T03:18:09.476Z,23.63
2018-09-28T03:20:36.918Z,22.80
2018-09-28T03:23:04.333Z,25.00
2018-09-28T03:25:31.744Z,18.20
2018-09-28T03:27:59.170Z,17.67
2018-09-28T03:30:26.597Z,22.50
2018-09-28T03:32:54.003Z,20.93
2018-09-28T03:35:21.433Z,20.20
2018-09-28T03:37:48.838Z,18.47
2018-09-28T03:40:16.270Z,20.63
2018-09-28T03:42:43.672Z,23.47
2018-09-28T03:45:11.106Z,18.50
2018-09-28T03:47:38.526Z,20.47
2018-09-28T03:50:05.977Z,21.13
2018-09-28T03:52:33.388Z,21.17
2018-09-28T03:55:00.814Z,21.83
2018-09-28T03:57:28.237Z,19.87
2018-09-28T03:59:55.677Z,19.07
2018-09-28T04:02:23.110Z,19.27
2018-09-28T04:04:50.548Z,25.53
2018-09-28T04:07:17.960Z,21.90
2018-09-28T04:09:45.351Z,20.57
2018-09-28T04:12:12.807Z,20.10
2018-09-28T04:14:40.243Z,23.97
2018-09-28T04:17:07.678Z,20.50
2018-09-28T04:19:35.096Z,23.83
2018-09-28T04:22:02.628Z,19.33
2018-09-28T04:24:29.938Z,24.93
2018-09-28T04:26:57.373Z,25.40
2018-09-28T04:29:24.777Z,20.70
2018-09-28T04:31:52.210Z,24.77
2018-09-28T04:34:19.638Z,24.10
2018-09-28T04:36:47.084Z,25.13
2018-09-28T04:39:14.484Z,22.60
2018-09-28T04:41:41.904Z,27.40
2018-09-28T04:44:09.318Z,25.93
2018-09-28T04:46:36.751Z,29.57
2018-09-28T04:49:04.152Z,28.87
2018-09-28T04:51:31.600Z,28.13
2018-09-28T04:53:59.001Z,27.20
2018-09-28T04:56:26.444Z,26.47
2018-09-28T04:58:53.904Z,33.40
2018-09-28T05:01:21.277Z,28.33
2018-09-28T05:03:48.726Z,26.77
2018-09-28T05:06:16.159Z,29.20
2018-09-28T05:08:43.610Z,25.13
2018-09-28T05:11:11.019Z,27.93
2018-09-28T05:13:38.449Z,36.87
2018-09-28T05:16:05.871Z,30.17
2018-09-28T05:18:33.303Z,33.13
2018-09-28T05:21:00.711Z,39.43
2018-09-28T05:23:28.152Z,46.33
2018-09-28T05:25:55.586Z,45.50
2018-09-28T05:28:23.025Z,58.23
2018-09-28T05:30:53.962Z,61.20
2018-09-28T05:33:17.894Z,64.97
2018-09-28T05:35:45.314Z,75.97
2018-09-28T05:38:12.744Z,78.13
2018-09-28T05:40:40.189Z,79.30
2018-09-28T05:43:07.609Z,75.40
2018-09-28T05:45:35.067Z,87.57
2018-09-28T05:48:02.488Z,84.40
2018-09-28T05:50:29.902Z,77.90
2018-09-28T05:52:57.354Z,69.70
2018-09-28T05:55:24.775Z,75.23
2018-09-28T05:57:52.185Z,72.40
2018-09-28T06:00:22.601Z,69.47
2018-09-28T06:02:52.809Z,78.00
2018-09-28T06:05:29.012Z,76.63
2018-09-28T06:07:56.418Z,76.73
2018-09-28T06:10:23.869Z,67.60
2018-09-28T06:12:51.283Z,73.77
2018-09-28T06:15:18.712Z,66.23
2018-09-28T06:17:46.214Z,77.33
2018-09-28T06:20:13.608Z,65.33
2018-09-28T06:22:41.046Z,66.15
2018-09-28T06:25:08.474Z,66.73
2018-09-28T06:27:35.904Z,61.63
2018-09-28T06:30:03.381Z,63.57
2018-09-28T06:32:30.773Z,66.80
2018-09-28T06:34:58.214Z,61.27
2018-09-28T06:37:25.657Z,70.63
2018-09-28T06:39:53.095Z,68.20
2018-09-28T06:42:20.576Z,63.97
2018-09-28T06:44:47.994Z,62.27
2018-09-28T06:47:15.358Z,68.17
2018-09-28T06:49:42.806Z,56.53
2018-09-28T06:52:10.216Z,65.37
2018-09-28T06:54:37.628Z,54.53
2018-09-28T06:57:05.076Z,62.57
2018-09-28T06:59:32.486Z,54.10
2018-09-28T07:01:59.900Z,57.77
2018-09-28T07:04:27.365Z,53.43
2018-09-28T07:06:54.795Z,57.53
2018-09-28T07:09:22.223Z,55.53
2018-09-28T07:11:49.687Z,50.50
2018-09-28T07:14:17.076Z,53.60
2018-09-28T07:16:44.553Z,61.43
2018-09-28T07:19:11.932Z,58.73
2018-09-28T07:21:39.383Z,52.90
2018-09-28T07:24:06.847Z,53.97
2018-09-28T07:26:34.231Z,51.60
2018-09-28T07:29:01.684Z,47.93
2018-09-28T07:31:29.113Z,48.67
2018-09-28T07:33:56.526Z,49.60
2018-09-28T07:36:24.079Z,46.83
2018-09-28T07:38:51.380Z,60.60
2018-09-28T07:41:18.839Z,54.17
2018-09-28T07:43:46.246Z,58.20
2018-09-28T07:46:13.881Z,52.67
2018-09-28T07:48:41.288Z,47.60
2018-09-28T07:51:08.723Z,48.60
2018-09-28T07:53:36.141Z,51.47
2018-09-28T07:56:03.584Z,43.93
2018-09-28T07:58:31.000Z,55.53
2018-09-28T08:00:58.428Z,41.83
2018-09-28T08:03:25.864Z,34.83
2018-09-28T08:05:53.299Z,35.17
2018-09-28T08:08:20.721Z,37.43
2018-09-28T08:10:48.147Z,35.53
2018-09-28T08:13:15.555Z,34.73
2018-09-28T08:15:43.011Z,26.43
2018-09-28T08:18:10.423Z,27.80
2018-09-28T08:20:37.869Z,26.20
2018-09-28T08:23:05.277Z,23.30
2018-09-28T08:25:32.706Z,26.93
2018-09-28T08:28:00.140Z,28.40
2018-09-28T08:30:27.658Z,23.63
2018-09-28T08:32:55.892Z,21.83
2018-09-28T08:35:23.341Z,26.87
2018-09-28T08:37:50.796Z,24.10
2018-09-28T08:40:19.726Z,21.73
2018-09-28T08:42:45.677Z,24.43
2018-09-28T08:45:13.083Z,27.27
2018-09-28T08:47:40.498Z,23.97
2018-09-28T08:50:07.922Z,26.67
2018-09-28T08:52:35.325Z,22.00
2018-09-28T08:55:02.776Z,20.93
2018-09-28T08:57:30.205Z,22.40
2018-09-28T08:59:57.622Z,20.10
2018-09-28T09:02:25.060Z,22.80
2018-09-28T09:04:52.497Z,24.47
2018-09-28T09:07:19.913Z,25.57
2018-09-28T09:09:47.348Z,18.13
2018-09-28T09:12:14.785Z,20.77
2018-09-28T09:14:42.196Z,20.10
2018-09-28T09:17:09.610Z,18.63
2018-09-28T09:19:37.021Z,20.23
2018-09-28T09:22:04.468Z,19.47
2018-09-28T09:24:31.874Z,18.90
2018-09-28T09:26:59.322Z,20.57
2018-09-28T09:29:26.735Z,20.50
2018-09-28T09:31:54.162Z,19.30
2018-09-28T09:34:21.588Z,18.50
2018-09-28T09:36:49.006Z,15.03
2018-09-28T09:39:16.469Z,13.10
2018-09-28T09:41:43.874Z,14.10
2018-09-28T09:44:11.307Z,15.00
2018-09-28T09:46:38.751Z,12.47
2018-09-28T09:49:06.157Z,9.77
2018-09-28T09:51:33.630Z,11.37
2018-09-28T09:54:01.025Z,12.37
2018-09-28T09:56:28.424Z,13.87
2018-09-28T09:58:55.879Z,15.07
2018-09-28T10:01:23.285Z,26.37
2018-09-28T10:03:50.713Z,11.57
2018-09-28T10:06:18.119Z,11.00
2018-09-28T10:08:45.546Z,17.77
2018-09-28T10:11:12.958Z,13.77
2018-09-28T10:13:40.382Z,10.23
2018-09-28T10:16:07.808Z,13.37
2018-09-28T10:18:35.245Z,9.47
2018-09-28T10:21:02.661Z,10.60
2018-09-28T10:23:30.101Z,14.53
2018-09-28T10:25:57.510Z,15.37
2018-09-28T10:28:24.965Z,16.10
2018-09-28T10:30:52.328Z,15.30
2018-09-28T10:33:19.736Z,20.80
2018-09-28T10:35:47.165Z,15.33
2018-09-28T10:38:14.612Z,17.73
2018-09-28T10:40:42.162Z,16.27
2018-09-28T10:43:09.414Z,17.00
2018-09-28T10:45:36.876Z,15.07
2018-09-28T10:48:04.257Z,16.43
2018-09-28T10:50:31.681Z,20.00
2018-09-28T10:52:59.129Z,20.67
2018-09-28T10:55:26.512Z,14.23
2018-09-28T10:57:53.965Z,13.73
2018-09-28T11:00:21.478Z,17.07
2018-09-28T11:02:48.851Z,18.03
2018-09-28T11:05:16.263Z,19.20
2018-09-28T11:07:43.673Z,17.17
2018-09-28T11:10:11.132Z,19.87
2018-09-28T11:12:38.519Z,20.67
2018-09-28T11:15:05.954Z,15.00
2018-09-28T11:17:33.352Z,26.03
2018-09-28T11:20:00.794Z,21.70
2018-09-28T11:22:28.215Z,18.33
2018-09-28T11:24:55.653Z,22.50
2018-09-28T11:27:23.146Z,19.70
2018-09-28T11:29:50.484Z,18.10
2018-09-28T11:32:17.912Z,15.37
2018-09-28T11:34:45.342Z,18.70
2018-09-28T11:37:12.827Z,20.10
2018-09-28T11:39:40.297Z,23.87
2018-09-28T11:42:07.659Z,20.60
2018-09-28T11:44:35.095Z,12.87
2018-09-28T11:47:02.534Z,18.90
2018-09-28T11:49:29.966Z,14.50
2018-09-28T11:51:57.422Z,16.13
2018-09-28T11:54:24.842Z,21.23
2018-09-28T11:56:52.257Z,14.87
2018-09-28T11:59:19.666Z,14.03
2018-09-28T12:01:47.107Z,27.47
2018-09-28T12:04:14.515Z,14.60
2018-09-28T12:06:41.935Z,17.57
2018-09-28T12:09:09.370Z,17.60
2018-09-28T12:11:36.773Z,14.23
2018-09-28T12:14:04.196Z,16.73
2018-09-28T12:16:31.598Z,23.07
2018-09-28T12:18:59.024Z,21.60
2018-09-28T12:21:26.549Z,19.33
2018-09-28T12:23:53.915Z,15.27
2018-09-28T12:26:21.319Z,21.93
2018-09-28T12:28:48.750Z,18.10
2018-09-28T12:31:16.159Z,24.93
2018-09-28T12:33:43.624Z,19.10
2018-09-28T12:36:11.040Z,21.23
2018-09-28T12:38:38.444Z,21.40
2018-09-28T12:41:05.874Z,24.80
2018-09-28T12:43:35.034Z,20.43
2018-09-28T12:46:00.729Z,22.50
2018-09-28T12:48:28.151Z,19.50
2018-09-28T12:50:55.563Z,18.47
2018-09-28T12:53:22.995Z,18.00
2018-09-28T12:55:50.405Z,14.87
2018-09-28T12:58:17.837Z,17.60
2018-09-28T13:00:45.314Z,15.23
2018-09-28T13:03:13.694Z,16.57
2018-09-28T13:05:41.100Z,11.57
2018-09-28T13:08:08.544Z,19.03
2018-09-28T13:10:35.969Z,17.33
2018-09-28T13:13:03.375Z,14.20
2018-09-28T13:15:30.891Z,26.57
2018-09-28T13:17:58.299Z,24.47
2018-09-28T13:20:25.798Z,12.93
2018-09-28T13:22:53.139Z,14.90
2018-09-28T13:25:20.543Z,13.37
2018-09-28T13:27:47.980Z,11.37
2018-09-28T13:30:15.449Z,12.93
2018-09-28T13:32:42.900Z,12.43
2018-09-28T13:35:10.278Z,14.13
2018-09-28T13:37:37.674Z,14.70
2018-09-28T13:40:05.134Z,12.73
2018-09-28T13:42:32.614Z,7.67
2018-09-28T13:45:00.066Z,10.93
2018-09-28T13:47:27.457Z,12.50
2018-09-28T13:49:54.887Z,14.07
2018-09-28T13:52:22.341Z,12.47
2018-09-28T13:54:49.789Z,14.20
2018-09-28T13:57:17.139Z,14.13
2018-09-28T13:59:44.599Z,12.77
2018-09-28T14:02:14.622Z,11.10
2018-09-28T14:04:42.060Z,12.40
2018-09-28T14:07:09.538Z,15.23
2018-09-28T14:09:36.857Z,10.17
2018-09-28T14:12:04.260Z,8.90
2018-09-28T14:14:31.707Z,10.13
2018-09-28T14:16:59.102Z,10.80
2018-09-28T14:19:26.542Z,9.23
2018-09-28T14:21:53.947Z,7.50
2018-09-28T14:24:21.411Z,11.07
2018-09-28T14:26:48.875Z,13.90
2018-09-28T14:29:16.288Z,10.43
2018-09-28T14:31:43.685Z,11.20
2018-09-28T14:34:11.109Z,13.87
2018-09-28T14:36:38.597Z,11.50
2018-09-28T14:39:05.948Z,13.37
2018-09-28T14:41:33.409Z,10.27
2018-09-28T14:44:00.807Z,13.87
2018-09-28T14:46:28.287Z,9.80
2018-09-28T14:48:55.769Z,9.50
2018-09-28T14:51:23.134Z,6.90
2018-09-28T14:53:50.568Z,13.80
2018-09-28T14:56:18.054Z,9.30
2018-09-28T14:58:45.456Z,10.17
2018-09-28T15:01:12.954Z,11.23
2018-09-28T15:03:40.245Z,9.57
2018-09-28T15:06:07.679Z,10.23
2018-09-28T15:08:35.134Z,8.00
2018-09-28T15:11:02.530Z,13.17
2018-09-28T15:13:29.937Z,8.83
2018-09-28T15:15:57.353Z,9.03
2018-09-28T15:18:24.812Z,10.77
2018-09-28T15:20:52.196Z,8.53
2018-09-28T15:23:19.589Z,10.03
2018-09-28T15:25:47.020Z,11.50
2018-09-28T15:28:14.462Z,10.33
2018-09-28T15:30:41.895Z,7.30
2018-09-28T15:33:09.350Z,14.73
2018-09-28T15:35:36.756Z,11.07
2018-09-28T15:38:04.177Z,9.53
2018-09-28T15:40:31.586Z,7.80
2018-09-28T15:42:59.023Z,7.87
2018-09-28T15:45:26.424Z,6.80
2018-09-28T15:47:53.855Z,7.80
2018-09-28T15:50:21.310Z,8.67
2018-09-28T15:52:48.701Z,7.70
2018-09-28T15:55:16.128Z,8.73
2018-09-28T15:57:43.526Z,9.90
2018-09-28T16:00:10.962Z,8.43
2018-09-28T16:02:38.365Z,7.77
2018-09-28T16:05:08.012Z,6.90
2018-09-28T16:07:35.442Z,9.00
2018-09-28T16:10:02.873Z,6.60
2018-09-28T16:12:30.243Z,9.33
2018-09-28T16:14:57.692Z,7.77
2018-09-28T16:17:25.087Z,12.17
2018-09-28T16:19:52.529Z,6.23
2018-09-28T16:22:23.010Z,9.27
2018-09-28T16:24:50.546Z,7.40
2018-09-28T16:27:17.874Z,10.10
2018-09-28T16:29:45.321Z,7.33
2018-09-28T16:32:12.743Z,7.57
2018-09-28T16:34:40.164Z,9.47
2018-09-28T16:37:07.574Z,11.50
2018-09-28T16:39:35.025Z,13.77
2018-09-28T16:42:02.452Z,13.13
2018-09-28T16:44:29.845Z,6.50
2018-09-28T16:46:57.287Z,8.90
2018-09-28T16:49:24.705Z,9.00
2018-09-28T16:51:52.135Z,14.37
2018-09-28T16:54:20.405Z,9.23
2018-09-28T16:56:47.833Z,7.43
2018-09-28T16:59:15.236Z,6.43
2018-09-28T17:01:42.671Z,10.50
2018-09-28T17:04:10.074Z,8.50
2018-09-28T17:06:37.489Z,10.00
2018-09-28T17:09:04.923Z,6.97
2018-09-28T17:11:32.332Z,7.13
2018-09-28T17:13:59.757Z,8.03
2018-09-28T17:16:27.159Z,7.43
2018-09-28T17:18:54.590Z,6.43
2018-09-28T17:21:21.996Z,10.13
2018-09-28T17:23:49.434Z,7.20
2018-09-28T17:26:16.851Z,5.63
2018-09-28T17:28:44.327Z,7.53
2018-09-28T17:31:17.853Z,6.20
2018-09-28T17:33:45.304Z,5.67
2018-09-28T17:36:12.750Z,7.37
2018-09-28T17:38:40.201Z,7.40
2018-09-28T17:41:07.639Z,13.43
2018-09-28T17:43:35.046Z,6.20
2018-09-28T17:46:02.485Z,8.07
2018-09-28T17:48:29.961Z,10.93
2018-09-28T17:50:57.359Z,10.00
2018-09-28T17:53:24.761Z,11.03
2018-09-28T17:55:52.186Z,8.25
2018-09-28T17:58:19.601Z,8.60
2018-09-28T18:00:47.048Z,9.73
2018-09-28T18:03:14.480Z,10.30
2018-09-28T18:05:41.964Z,9.93
2018-09-28T18:08:09.342Z,7.77
2018-09-28T18:10:36.792Z,7.97
2018-09-28T18:13:04.242Z,11.00
2018-09-28T18:15:31.665Z,10.43
2018-09-28T18:17:59.193Z,10.57
2018-09-28T18:20:26.608Z,8.80
2018-09-28T18:22:54.002Z,10.53
2018-09-28T18:25:21.436Z,7.00
2018-09-28T18:27:48.847Z,5.57
2018-09-28T18:30:16.281Z,10.57
2018-09-28T18:32:43.715Z,10.67
2018-09-28T18:35:11.161Z,9.63
2018-09-28T18:37:38.597Z,8.10
2018-09-28T18:40:06.028Z,10.17
2018-09-28T18:42:33.444Z,10.07
2018-09-28T18:45:00.894Z,9.77
2018-09-28T18:47:28.312Z,11.40
2018-09-28T18:49:55.730Z,12.77
2018-09-28T18:52:23.169Z,8.97
2018-09-28T18:54:50.581Z,7.93
2018-09-28T18:57:18.100Z,6.83
2018-09-28T18:59:45.493Z,6.33
2018-09-28T19:02:13.024Z,9.77
2018-09-28T19:04:40.495Z,8.50
2018-09-28T19:07:07.956Z,8.77
2018-09-28T19:09:35.368Z,11.20
2018-09-28T19:12:02.855Z,7.77
2018-09-28T19:14:30.283Z,10.63
2018-09-28T19:16:57.743Z,8.40
2018-09-28T19:19:25.159Z,12.97
2018-09-28T19:21:52.600Z,7.43
2018-09-28T19:24:20.044Z,9.57
2018-09-28T19:26:47.461Z,9.87
2018-09-28T19:29:14.988Z,11.07
2018-09-28T19:31:42.409Z,12.67
2018-09-28T19:34:09.853Z,11.37
2018-09-28T19:36:37.266Z,8.73
2018-09-28T19:39:04.757Z,12.30
2018-09-28T19:41:32.171Z,9.37
2018-09-28T19:43:59.717Z,7.13
2018-09-28T19:46:27.140Z,15.63
2018-09-28T19:48:54.603Z,8.50
2018-09-28T19:51:22.061Z,9.37
2018-09-28T19:53:49.471Z,11.60
2018-09-28T19:56:16.948Z,12.77
2018-09-28T19:58:44.380Z,9.80
2018-09-28T20:01:11.806Z,9.40
2018-09-28T20:03:39.228Z,12.63
2018-09-28T20:06:06.635Z,8.23
2018-09-28T20:08:34.070Z,11.60
2018-09-28T20:11:01.483Z,8.37
2018-09-28T20:13:28.905Z,9.17
2018-09-28T20:15:56.361Z,7.63
2018-09-28T20:18:23.765Z,9.90
2018-09-28T20:20:51.201Z,9.50
2018-09-28T20:23:18.607Z,7.40
2018-09-28T20:25:46.048Z,14.97
2018-09-28T20:28:13.525Z,10.17
2018-09-28T20:30:40.934Z,8.03
2018-09-28T20:33:08.341Z,8.37
2018-09-28T20:35:35.778Z,8.73
2018-09-28T20:38:03.179Z,9.27
2018-09-28T20:40:30.645Z,10.97
2018-09-28T20:42:58.062Z,7.60
2018-09-28T20:45:25.456Z,6.60
2018-09-28T20:47:52.888Z,9.37
2018-09-28T20:50:20.313Z,8.23
2018-09-28T20:52:47.732Z,12.03
2018-09-28T20:55:15.152Z,10.47
2018-09-28T20:57:42.580Z,12.67
2018-09-28T21:00:09.984Z,7.20
2018-09-28T21:02:39.040Z,11.90
2018-09-28T21:05:06.466Z,9.00
2018-09-28T21:07:33.934Z,11.67
2018-09-28T21:10:01.304Z,10.90
2018-09-28T21:12:28.703Z,7.70
2018-09-28T21:14:56.129Z,10.67
2018-09-28T21:17:23.556Z,9.60
2018-09-28T21:19:51.009Z,11.03
2018-09-28T21:22:21.141Z,9.27
2018-09-28T21:24:48.585Z,7.77
2018-09-28T21:27:16.005Z,6.60
2018-09-28T21:29:43.420Z,9.97
2018-09-28T21:32:10.808Z,9.00
2018-09-28T21:34:38.233Z,7.90
2018-09-28T21:37:05.663Z,6.27
2018-09-28T21:39:33.072Z,12.53
2018-09-28T21:42:00.516Z,7.97
2018-09-28T21:44:27.961Z,7.07
2018-09-28T21:46:55.411Z,8.73
2018-09-28T21:49:22.817Z,7.00
2018-09-28T21:51:50.237Z,11.90
2018-09-28T21:54:17.657Z,11.67
2018-09-28T21:56:45.083Z,14.70
2018-09-28T21:59:12.509Z,12.63
2018-09-28T22:01:39.930Z,13.20
2018-09-28T22:04:07.347Z,8.30
2018-09-28T22:06:34.740Z,5.47
2018-09-28T22:09:02.180Z,7.73
2018-09-28T22:11:29.587Z,12.03
2018-09-28T22:13:57.045Z,9.43
2018-09-28T22:16:24.421Z,10.43
2018-09-28T22:18:51.827Z,9.30
2018-09-28T22:21:19.257Z,10.20
2018-09-28T22:23:46.726Z,9.27
2018-09-28T22:26:14.077Z,10.67
2018-09-28T22:28:41.525Z,10.43
2018-09-28T22:31:08.946Z,8.03
2018-09-28T22:33:36.373Z,12.13
2018-09-28T22:36:03.786Z,14.47
2018-09-28T22:38:31.216Z,12.50
2018-09-28T22:40:58.654Z,8.87
2018-09-28T22:43:26.064Z,8.77
2018-09-28T22:45:53.494Z,12.03
2018-09-28T22:48:20.913Z,10.63
2018-09-28T22:50:48.346Z,10.40
2018-09-28T22:53:15.776Z,13.83
2018-09-28T22:55:43.174Z,8.67
2018-09-28T22:58:10.706Z,11.73
2018-09-28T23:00:38.108Z,8.20
2018-09-28T23:03:05.532Z,13.03
2018-09-28T23:05:32.980Z,10.63
2018-09-28T23:08:00.361Z,5.93
2018-09-28T23:10:27.789Z,10.13
2018-09-28T23:12:55.194Z,9.70
2018-09-28T23:15:22.637Z,12.20
2018-09-28T23:17:50.036Z,13.07
2018-09-28T23:20:17.494Z,9.57
2018-09-28T23:22:44.884Z,13.27
2018-09-28T23:25:12.274Z,12.73
2018-09-28T23:27:39.698Z,7.47
2018-09-28T23:30:07.118Z,10.77
2018-09-28T23:32:34.557Z,10.80
2018-09-28T23:35:01.955Z,10.07
2018-09-28T23:37:29.353Z,7.87
2018-09-28T23:39:56.783Z,7.70
2018-09-28T23:42:24.189Z,7.63
2018-09-28T23:44:51.625Z,10.50
2018-09-28T23:47:19.054Z,7.27
2018-09-28T23:49:46.461Z,7.77
2018-09-28T23:52:13.850Z,7.67
2018-09-28T23:54:41.274Z,10.77
2018-09-28T23:57:08.681Z,9.40
2018-09-28T23:59:36.089Z,9.10
